KDAB/DAB METAR and TAF weather

Enter ICAO airport designator
Station Type Date Time Source
KDAB METAR 2019/10/15 08:53 UTC NOAA

KDAB 150853Z 00000KT 10SM BKN130 22/22 A3006 RMK AO2 SLP178 T02220217 55007


Station Type Date Time Source
KDAB Decoded METAR 2019/10/15 08:53 UTC NOAA

DAYTONA BEACH INTERNATIONAL, FL, United States (KDAB) 29-10N 81-04W 9M
Oct 15, 2019 - 04:53 AM EDT / 2019.10.15 0853 UTC
Wind: Calm:0
Visibility: 10 mile(s):0
Sky conditions: mostly cloudy
Temperature: 72.0 F (22.2 C)
Dew Point: 71.1 F (21.7 C)
Relative Humidity: 96%
Pressure (altimeter): 30.06 in. Hg (1017 hPa)
Pressure tendency: 0.02 inches (0.7 hPa) lower than three hours ago
ob: KDAB 150853Z 00000KT 10SM BKN130 22/22 A3006 RMK AO2 SLP178 T02220217 55007
cycle: 9

Station Type Date Time Source
KDAB TAF 2019/10/15 06:22 UTC NOAA

TAF KDAB 150520Z 1506/1606 VRB02KT P6SM SCT250
FM151500 17005KT P6SM FEW030 SCT150 BKN200
FM151800 13008KT P6SM SCT050 BKN150
FM160100 17003KT P6SM FEW050 BKN150 BKN250

Example: see airport list